createdAt,value
2022-07-26T00:13:42.358Z,2.35
2022-07-26T00:23:45.329Z,2.17
2022-07-26T00:33:48.302Z,2.50
2022-07-26T00:43:58.868Z,2.53
2022-07-26T00:54:01.375Z,2.88
2022-07-26T01:04:07.627Z,2.55
2022-07-26T01:14:10.821Z,2.90
2022-07-26T01:24:14.429Z,2.92
2022-07-26T01:34:17.301Z,2.95
2022-07-26T01:44:23.158Z,2.55
2022-07-26T01:54:26.331Z,2.42
2022-07-26T02:04:47.946Z,3.03
2022-07-26T02:14:50.653Z,2.40
2022-07-26T02:24:53.370Z,3.08
2022-07-26T02:34:56.297Z,2.60
2022-07-26T02:44:59.365Z,3.03
2022-07-26T02:55:02.283Z,2.92
2022-07-26T03:15:09.984Z,2.92
2022-07-26T03:25:12.561Z,2.60
2022-07-26T03:35:15.324Z,2.78
2022-07-26T03:45:20.561Z,3.45
2022-07-26T03:55:42.007Z,3.30
2022-07-26T04:05:48.931Z,3.25
2022-07-26T04:15:52.431Z,3.20
2022-07-26T04:25:55.290Z,2.95
2022-07-26T04:35:58.268Z,3.03
2022-07-26T04:46:00.967Z,3.13
2022-07-26T04:56:04.363Z,2.72
2022-07-26T05:06:07.461Z,3.38
2022-07-26T05:16:11.571Z,3.05
2022-07-26T05:26:15.591Z,3.30
2022-07-26T05:36:18.582Z,2.80
2022-07-26T05:46:20.976Z,2.80
2022-07-26T05:56:23.608Z,2.80
2022-07-26T06:06:26.322Z,2.85
2022-07-26T06:16:29.366Z,3.25
2022-07-26T06:26:32.500Z,2.55
2022-07-26T06:36:35.454Z,2.40
2022-07-26T06:46:38.011Z,2.88
2022-07-26T06:56:40.396Z,2.30
2022-07-26T07:06:42.953Z,2.33
2022-07-26T07:16:48.069Z,2.30
2022-07-26T07:26:50.650Z,2.80
2022-07-26T07:36:54.115Z,2.50
2022-07-26T07:46:56.999Z,2.95
2022-07-26T07:56:59.657Z,2.47
2022-07-26T08:07:02.607Z,2.85
2022-07-26T08:17:05.157Z,2.22
2022-07-26T08:27:07.701Z,2.50
2022-07-26T08:37:18.118Z,2.80
2022-07-26T08:47:37.567Z,2.75
2022-07-26T08:57:43.477Z,2.65
2022-07-26T09:07:45.932Z,3.08
2022-07-26T09:17:51.056Z,2.35
2022-07-26T09:27:54.151Z,2.60
2022-07-26T09:37:56.909Z,2.97
2022-07-26T09:47:59.539Z,3.53
2022-07-26T09:58:04.982Z,2.65
2022-07-26T10:08:08.443Z,3.35
2022-07-26T10:18:32.399Z,4.00
2022-07-26T10:28:37.002Z,3.13
2022-07-26T10:49:08.569Z,3.28
2022-07-26T10:59:10.964Z,3.55
2022-07-26T11:09:14.042Z,3.75
2022-07-26T11:19:21.398Z,3.58
2022-07-26T11:29:38.999Z,3.15
2022-07-26T11:39:43.915Z,3.50
2022-07-26T11:50:00.693Z,3.13
2022-07-26T12:00:13.035Z,3.22
2022-07-26T12:10:16.919Z,3.45
2022-07-26T12:20:19.420Z,3.38
2022-07-26T12:30:25.747Z,3.33
2022-07-26T12:40:41.424Z,3.50
2022-07-26T13:00:46.753Z,4.30
2022-07-26T13:10:49.324Z,3.83
2022-07-26T13:20:51.719Z,4.50
2022-07-26T13:30:54.256Z,9.25
2022-07-26T13:40:56.853Z,8.38
2022-07-26T13:50:59.889Z,7.93
2022-07-26T14:01:03.291Z,7.32
2022-07-26T14:11:05.834Z,6.40
2022-07-26T14:21:10.690Z,6.68
2022-07-26T14:31:13.728Z,5.88
2022-07-26T14:41:16.580Z,6.38
2022-07-26T14:51:20.081Z,6.90
2022-07-26T15:01:22.623Z,6.07
2022-07-26T15:11:25.300Z,6.30
2022-07-26T15:21:29.875Z,6.13
2022-07-26T15:31:37.133Z,5.82
2022-07-26T15:41:40.339Z,5.65
2022-07-26T15:51:43.407Z,6.57
2022-07-26T16:01:46.177Z,5.70
2022-07-26T16:11:50.489Z,6.05
2022-07-26T16:21:53.005Z,5.03
2022-07-26T16:31:56.334Z,5.43
2022-07-26T16:42:04.701Z,4.90
2022-07-26T16:52:10.057Z,5.22
2022-07-26T17:02:12.790Z,5.20
2022-07-26T17:12:15.164Z,5.78
2022-07-26T17:22:18.193Z,5.72
2022-07-26T17:32:20.685Z,5.32
2022-07-26T17:42:23.158Z,5.85
2022-07-26T17:52:25.439Z,6.28
2022-07-26T18:02:27.828Z,6.15
2022-07-26T18:12:30.775Z,5.97
2022-07-26T18:22:33.295Z,7.72
2022-07-26T18:32:35.766Z,8.65
2022-07-26T18:42:38.183Z,8.57
2022-07-26T18:52:40.560Z,8.80
2022-07-26T19:02:44.397Z,9.02
2022-07-26T19:12:48.618Z,8.07
2022-07-26T19:22:51.281Z,7.28
2022-07-26T19:32:53.761Z,7.90
2022-07-26T19:42:56.280Z,7.03
2022-07-26T19:52:58.679Z,7.40
2022-07-26T20:03:02.024Z,7.40
2022-07-26T20:13:04.577Z,7.72
2022-07-26T20:23:10.999Z,7.35
2022-07-26T20:33:16.727Z,8.20
2022-07-26T20:43:21.708Z,8.10
2022-07-26T20:53:24.244Z,8.52
2022-07-26T21:03:26.598Z,8.55
2022-07-26T21:13:29.473Z,8.07
2022-07-26T21:23:31.821Z,8.13
2022-07-26T21:33:34.252Z,5.90
2022-07-26T21:43:36.904Z,4.53
2022-07-26T21:53:39.231Z,2.85
2022-07-26T22:03:42.338Z,3.20
2022-07-26T22:13:45.148Z,2.45
2022-07-26T22:23:47.479Z,2.60
2022-07-26T22:33:50.252Z,2.38
2022-07-26T22:43:53.227Z,2.38
2022-07-26T22:53:55.680Z,2.63
2022-07-26T23:14:00.883Z,2.80
2022-07-26T23:24:03.290Z,2.65
2022-07-26T23:34:05.860Z,2.33
2022-07-26T23:44:09.269Z,2.17
2022-07-26T23:54:11.662Z,2.55
